Battle Harbour, Canada
Current Conditions -  °F | °C
As of 11:00 AM on Tuesday 21 Oct 2014 (Local Time) from CYMH Reporting Station
Broken Clouds Broken Clouds  
Wind Chill:   Ceiling: 3300
Heat Index:   Visibility: 15mi
Dew Point: -1°   Wind: 16mph
Humidity: 61%   Direction: 290°WNW
Pressure: 29.79"   Gusts: 26mph
Location:  52.27°N, 55.58°W
Report Text: CYMH 211400Z 29014G23KT 15SM BKN033 06/M01 A2979 RMK SC6 PRESRR SLP087
Loading
Personal Weather Stations






























Interactive Weather Map
Tropical Storm Tracking
New forecast layout! Learn more

10-Day Weather Forecast

Advertisements
Track Severe Weather on mobile